Time;durP1;ratioP1;P1;durP2;ratioP2;P2;SDS_P1;SDS_P2;PMS_P1;PMS_P2;Temp;Humidity;BMP_temperature;BMP_pressure;BME280_temperature;BME280_humidity;BME280_pressure;Samples;Min_cycle;Max_cycle;Signal;HPM_P1;HPM_P2
2023/03/08 00:00:13;;;;;;;1999.90;999.90;;;;;;;5.28;100.00;93994.34;5084403;28;20175;-63
2023/03/08 00:02:39;;;;;;;1999.90;999.90;;;;;;;5.25;100.00;93997.13;5083874;28;20186;-63
2023/03/08 00:05:05;;;;;;;1999.90;999.90;;;;;;;5.28;100.00;94004.44;5083554;28;20174;-63
2023/03/08 00:07:30;;;;;;;1999.90;999.90;;;;;;;5.26;100.00;93996.72;5084163;28;20200;-62
2023/03/08 00:09:56;;;;;;;1999.90;999.90;;;;;;;5.25;100.00;94003.28;5083713;28;20222;-64
2023/03/08 00:12:21;;;;;;;1999.90;999.90;;;;;;;5.23;100.00;94010.25;5083595;28;20183;-63
2023/03/08 00:14:48;;;;;;;1999.90;999.90;;;;;;;5.24;100.00;94017.97;5084054;28;20179;-64
2023/03/08 00:17:14;;;;;;;1999.90;999.90;;;;;;;5.19;100.00;94020.34;5083679;28;20179;-63
2023/03/08 00:19:39;;;;;;;1999.90;999.90;;;;;;;5.23;100.00;94021.09;5083444;28;20182;-63
2023/03/08 00:22:04;;;;;;;1999.90;999.90;;;;;;;5.18;100.00;94026.94;5083722;28;20180;-63
2023/03/08 00:24:30;;;;;;;1999.90;999.90;;;;;;;5.19;100.00;94025.78;5083625;28;20243;-64
2023/03/08 00:26:55;;;;;;;1999.90;999.90;;;;;;;5.17;100.00;94017.31;5083203;28;20295;-65
2023/03/08 00:29:21;;;;;;;1999.90;999.90;;;;;;;5.09;100.00;94021.22;5083740;28;20209;-65
2023/03/08 00:31:46;;;;;;;1999.90;999.90;;;;;;;5.08;100.00;94025.88;5083497;28;20181;-64
2023/03/08 00:34:11;;;;;;;1999.90;999.90;;;;;;;5.01;100.00;94014.34;5083391;28;20207;-64
2023/03/08 00:36:37;;;;;;;1999.90;999.90;;;;;;;4.96;100.00;94018.25;5083315;28;20242;-64
2023/03/08 00:39:02;;;;;;;1999.90;999.90;;;;;;;4.95;100.00;94026.78;5083750;28;20174;-64
2023/03/08 00:41:28;;;;;;;1999.90;999.90;;;;;;;4.86;100.00;94018.38;5083302;28;20174;-63
2023/03/08 00:43:53;;;;;;;1999.90;999.90;;;;;;;4.86;100.00;94012.97;5083241;28;20173;-62
2023/03/08 00:46:18;;;;;;;1999.90;999.90;;;;;;;4.81;100.00;94010.69;5083183;28;20201;-63
2023/03/08 00:48:44;;;;;;;1999.90;999.90;;;;;;;4.84;100.00;94018.75;5083049;28;20194;-63
2023/03/08 00:51:13;;;;;;;1999.90;999.90;;;;;;;4.81;100.00;94010.69;5083675;28;20241;-64
2023/03/08 00:53:39;;;;;;;1999.90;999.90;;;;;;;4.76;100.00;94009.19;5083039;28;20190;-64
2023/03/08 00:56:04;;;;;;;1999.90;999.90;;;;;;;4.80;100.00;93999.09;5083700;28;20170;-64
2023/03/08 00:58:30;;;;;;;1999.90;999.90;;;;;;;4.82;100.00;94012.22;5083057;28;20169;-64
2023/03/08 01:00:56;;;;;;;1999.90;999.90;;;;;;;4.82;100.00;94012.22;5083350;28;20166;-68
2023/03/08 01:03:23;;;;;;;1999.90;999.90;;;;;;;4.81;100.00;94005.28;5083110;28;20169;-64
2023/03/08 01:05:52;;;;;;;1999.90;999.90;;;;;;;4.85;100.00;94016.84;5086280;28;20169;-64
2023/03/08 01:08:18;;;;;;;1999.90;999.90;;;;;;;4.89;100.00;94017.56;5086420;28;20201;-64
2023/03/08 01:10:48;;;;;;;1999.90;999.90;;;;;;;4.87;100.00;94019.88;5087113;28;20173;-63
2023/03/08 01:13:14;;;;;;;1999.90;999.90;;;;;;;4.85;100.00;94016.84;5087029;28;20169;-64
2023/03/08 01:15:40;;;;;;;1999.90;999.90;;;;;;;4.84;100.00;94009.91;5086622;28;20176;-63
2023/03/08 01:18:05;;;;;;;1999.90;999.90;;;;;;;4.88;100.00;94016.03;5086904;28;20171;-63
2023/03/08 01:20:31;;;;;;;1999.90;999.90;;;;;;;4.84;100.00;94016.06;5086434;28;20166;-63
2023/03/08 01:22:56;;;;;;;1999.90;999.90;;;;;;;4.79;100.00;94004.91;5086785;28;20240;-66
2023/03/08 01:25:22;;;;;;;1999.90;999.90;;;;;;;4.68;100.00;94001.53;5086888;28;20165;-64
2023/03/08 01:27:47;;;;;;;1999.90;999.90;;;;;;;4.59;100.00;94004.69;5086348;28;20217;-63
2023/03/08 01:30:13;;;;;;;1999.90;999.90;;;;;;;4.48;100.00;94004.00;5085965;28;20168;-65
2023/03/08 01:32:38;;;;;;;1999.90;999.90;;;;;;;4.36;100.00;94017.22;5086472;28;20193;-65
2023/03/08 01:35:04;;;;;;;1999.90;999.90;;;;;;;4.32;100.00;94011.09;5086127;28;20166;-65
2023/03/08 01:37:31;;;;;;;1999.90;999.90;;;;;;;4.19;100.00;93994.56;5086052;28;20165;-64
2023/03/08 01:39:56;;;;;;;1999.90;999.90;;;;;;;4.15;100.00;94003.88;5086065;28;20174;-64
2023/03/08 01:42:22;;;;;;;1999.90;999.90;;;;;;;4.15;100.00;94001.19;5085979;28;20177;-64
2023/03/08 01:44:56;;;;;;;1999.90;999.90;;;;;;;4.10;100.00;94007.78;5085889;28;20232;-64
2023/03/08 01:47:24;;;;;;;1999.90;999.90;;;;;;;4.00;100.00;94005.91;5086397;28;20180;-64
2023/03/08 01:49:53;;;;;;;1999.90;999.90;;;;;;;4.02;100.00;94005.50;5085734;28;20197;-64
2023/03/08 01:52:30;;;;;;;1999.90;999.90;;;;;;;3.93;100.00;94005.19;5086352;28;20165;-64
2023/03/08 01:54:59;;;;;;;1999.90;999.90;;;;;;;3.89;100.00;93990.94;5085723;28;20213;-64
2023/03/08 01:57:34;;;;;;;1999.90;999.90;;;;;;;3.90;100.00;94001.34;5085713;28;20166;-64
2023/03/08 02:00:09;;;;;;;1999.90;999.90;;;;;;;3.79;100.00;93989.06;5086106;28;20236;-63
2023/03/08 02:02:46;;;;;;;1999.90;999.90;;;;;;;3.75;100.00;93983.66;5085496;28;20172;-64
2023/03/08 02:05:13;;;;;;;1999.90;999.90;;;;;;;3.75;100.00;93977.53;5085261;28;20199;-64
2023/03/08 02:07:38;;;;;;;1999.90;999.90;;;;;;;3.67;100.00;93981.44;5085932;28;20336;-64
2023/03/08 02:10:04;;;;;;;1999.90;999.90;;;;;;;3.66;100.00;93986.03;5085381;28;20256;-65
2023/03/08 02:12:30;;;;;;;1999.90;999.90;;;;;;;3.63;100.00;93983.34;5085333;28;20166;-63
2023/03/08 02:14:56;;;;;;;1999.90;999.90;;;;;;;3.62;100.00;93976.44;5085160;28;20177;-63
2023/03/08 02:17:22;;;;;;;1999.90;999.90;;;;;;;3.60;100.00;93978.75;5085490;28;20237;-63
2023/03/08 02:19:50;;;;;;;1999.90;999.90;;;;;;;3.57;100.00;93982.25;5085720;28;20380;-63
2023/03/08 02:22:16;;;;;;;1999.90;999.90;;;;;;;3.49;100.00;93981.50;5085450;28;20237;-63
2023/03/08 02:24:42;;;;;;;1999.90;999.90;;;;;;;3.45;100.00;93976.13;5085402;28;20244;-63
2023/03/08 02:27:16;;;;;;;1999.90;999.90;;;;;;;3.47;100.00;93965.69;5084878;28;20224;-63
2023/03/08 02:29:42;;;;;;;1999.90;999.90;;;;;;;3.46;100.00;93966.88;5085720;28;20192;-63
2023/03/08 02:32:08;;;;;;;1999.90;999.90;;;;;;;3.43;100.00;93967.66;5084712;28;20176;-63
2023/03/08 02:34:34;;;;;;;1999.90;999.90;;;;;;;3.43;100.00;93956.84;5084974;28;20169;-63
2023/03/08 02:37:00;;;;;;;1999.90;999.90;;;;;;;3.39;100.00;93958.81;5085410;28;20169;-63
2023/03/08 02:39:26;;;;;;;1999.90;999.90;;;;;;;3.37;100.00;93965.75;5085359;28;20218;-63
2023/03/08 02:41:51;;;;;;;1999.90;999.90;;;;;;;3.34;100.00;93955.75;5085007;28;20189;-62
2023/03/08 02:44:16;;;;;;;1999.90;999.90;;;;;;;3.28;100.00;93944.59;5084699;28;20391;-62
2023/03/08 02:46:42;;;;;;;1999.90;999.90;;;;;;;3.27;100.00;93945.78;5084322;28;20174;-62
2023/03/08 02:49:07;;;;;;;1999.90;999.90;;;;;;;3.25;100.00;93952.72;5085138;28;20201;-63
2023/03/08 02:51:33;;;;;;;1999.90;999.90;;;;;;;3.24;100.00;93951.94;5084589;28;20203;-63
2023/03/08 02:53:58;;;;;;;1999.90;999.90;;;;;;;3.17;100.00;93946.56;5084425;28;20192;-66
2023/03/08 02:56:23;;;;;;;1999.90;999.90;;;;;;;3.14;100.00;93943.91;5084949;28;20173;-63
2023/03/08 02:58:49;;;;;;;1999.90;999.90;;;;;;;3.11;100.00;93948.16;5084467;28;20182;-63
2023/03/08 03:01:14;;;;;;;1999.90;999.90;;;;;;;3.09;100.00;93947.75;5084653;28;20169;-63
2023/03/08 03:03:40;;;;;;;1999.90;999.90;;;;;;;3.02;100.00;93952.41;5085121;28;20404;-63
2023/03/08 03:06:17;;;;;;;1999.90;999.90;;;;;;;2.99;100.00;93945.88;5084835;28;20161;-63
2023/03/08 03:08:42;;;;;;;1999.90;999.90;;;;;;;2.91;100.00;93941.66;5084475;28;20193;-63
2023/03/08 03:11:13;;;;;;;1999.90;999.90;;;;;;;2.91;100.00;93941.66;5084362;28;20165;-64
2023/03/08 03:13:38;;;;;;;1999.90;999.90;;;;;;;2.92;100.00;93935.09;5084794;28;20176;-64
2023/03/08 03:16:12;;;;;;;1999.90;999.90;;;;;;;2.90;100.00;93948.22;5084745;28;20165;-64
2023/03/08 03:18:38;;;;;;;1999.90;999.90;;;;;;;2.88;100.00;93947.81;5083822;28;20165;-64
2023/03/08 03:21:05;;;;;;;1999.90;999.90;;;;;;;2.88;100.00;93953.22;5084527;28;20169;-61
2023/03/08 03:23:31;;;;;;;1999.90;999.90;;;;;;;2.86;100.00;93944.78;5084067;28;20176;-61
2023/03/08 03:26:02;;;;;;;1999.90;999.90;;;;;;;2.81;100.00;93937.06;5083841;28;20244;-64
2023/03/08 03:28:27;;;;;;;1999.90;999.90;;;;;;;2.79;100.00;93928.63;5083630;28;20205;-64
2023/03/08 03:30:52;;;;;;;1999.90;999.90;;;;;;;2.77;100.00;93924.78;5084397;28;20165;-63
2023/03/08 03:33:18;;;;;;;1999.90;999.90;;;;;;;2.77;100.00;93930.91;5084154;28;20254;-62
2023/03/08 03:35:43;;;;;;;1999.90;999.90;;;;;;;2.75;100.00;93921.69;5083996;28;20195;-61
2023/03/08 03:38:08;;;;;;;1999.90;999.90;;;;;;;2.73;100.00;93927.47;5083811;28;20169;-63
2023/03/08 03:40:34;;;;;;;1999.90;999.90;;;;;;;2.72;100.00;93923.25;5083756;28;20211;-63
2023/03/08 03:42:59;;;;;;;1999.90;999.90;;;;;;;2.69;100.00;93923.25;5083743;28;20430;-65
2023/03/08 03:45:24;;;;;;;1999.90;999.90;;;;;;;2.67;100.00;93929.03;5083752;28;20165;-60
2023/03/08 03:47:50;;;;;;;1999.90;999.90;;;;;;;2.63;100.00;93909.41;5083730;28;20165;-60
2023/03/08 03:50:15;;;;;;;1999.90;999.90;;;;;;;2.59;100.00;93905.19;5083770;28;20211;-62
2023/03/08 03:52:41;;;;;;;1999.90;999.90;;;;;;;2.60;100.00;93910.19;5083734;28;20212;-62
2023/03/08 03:55:07;;;;;;;1999.90;999.90;;;;;;;2.59;100.00;93900.56;5083559;28;20196;-63
2023/03/08 03:57:32;;;;;;;1999.90;999.90;;;;;;;2.56;100.00;93906.75;5083504;28;20184;-62
2023/03/08 03:59:58;;;;;;;1999.90;999.90;;;;;;;2.52;100.00;93902.53;5083666;28;20181;-63
2023/03/08 04:02:23;;;;;;;1999.90;999.90;;;;;;;2.50;100.00;93911.00;5083597;28;20185;-63
2023/03/08 04:04:49;;;;;;;1999.90;999.90;;;;;;;2.51;100.00;93911.75;5084092;28;20223;-65
2023/03/08 04:07:15;;;;;;;1999.90;999.90;;;;;;;2.49;100.00;93914.84;5083154;28;20173;-62
2023/03/08 04:09:40;;;;;;;1999.90;999.90;;;;;;;2.49;100.00;93909.47;5083551;28;20224;-62
2023/03/08 04:12:06;;;;;;;1999.90;999.90;;;;;;;2.52;100.00;93910.59;5083754;28;20169;-62
2023/03/08 04:14:31;;;;;;;1999.90;999.90;;;;;;;2.52;100.00;93905.22;5083590;28;20193;-62
2023/03/08 04:16:56;;;;;;;1999.90;999.90;;;;;;;2.50;100.00;93911.00;5083866;28;20170;-62
2023/03/08 04:19:22;;;;;;;1999.90;999.90;;;;;;;2.46;100.00;93904.84;5083912;28;20249;-62
2023/03/08 04:21:47;;;;;;;1999.90;999.90;;;;;;;2.47;100.00;93908.28;5084007;28;20180;-62
2023/03/08 04:24:13;;;;;;;1999.90;999.90;;;;;;;2.46;100.00;93899.47;5084209;28;20177;-63
2023/03/08 04:26:38;;;;;;;1999.90;999.90;;;;;;;2.46;100.00;93899.47;5083250;28;20219;-62
2023/03/08 04:29:05;;;;;;;1999.90;999.90;;;;;;;2.46;100.00;93894.06;5084053;28;20219;-62
2023/03/08 04:31:33;;;;;;;1999.90;999.90;;;;;;;2.43;100.00;93894.84;5083263;28;20210;-62
2023/03/08 04:33:59;;;;;;;1999.90;999.90;;;;;;;2.45;100.00;93892.50;5083324;28;20236;-62
2023/03/08 04:36:24;;;;;;;1999.90;999.90;;;;;;;2.46;100.00;93893.28;5083678;28;20170;-64
2023/03/08 04:38:50;;;;;;;1999.90;999.90;;;;;;;2.48;100.00;93883.66;5084752;28;20192;-63
2023/03/08 04:41:16;;;;;;;1999.90;999.90;;;;;;;2.51;100.00;93877.50;5087016;28;20169;-62
2023/03/08 04:43:50;;;;;;;1999.90;999.90;;;;;;;2.54;100.00;93873.25;5087034;28;20244;-63
2023/03/08 04:46:17;;;;;;;1999.90;999.90;;;;;;;2.54;100.00;93871.34;5087118;28;20447;-63
2023/03/08 04:48:43;;;;;;;1999.90;999.90;;;;;;;2.57;100.00;93869.78;5087173;28;20200;-65
2023/03/08 04:51:11;;;;;;;1999.90;999.90;;;;;;;2.53;100.00;93869.03;5087488;28;20202;-64
2023/03/08 04:53:38;;;;;;;1999.90;999.90;;;;;;;2.60;100.00;93861.72;5087279;28;20193;-65
2023/03/08 04:56:04;;;;;;;1999.90;999.90;;;;;;;2.60;100.00;93855.53;5087198;28;20165;-63
2023/03/08 04:58:30;;;;;;;1999.90;999.90;;;;;;;2.60;100.00;93856.31;5086559;28;20188;-65
2023/03/08 05:00:56;;;;;;;1999.90;999.90;;;;;;;2.56;100.00;93844.78;5087161;28;20169;-63
2023/03/08 05:03:21;;;;;;;1999.90;999.90;;;;;;;2.58;100.00;93847.84;5086605;28;20189;-63
2023/03/08 05:05:50;;;;;;;1999.90;999.90;;;;;;;2.52;100.00;93835.19;5086918;28;20188;-63
2023/03/08 05:08:16;;;;;;;1999.90;999.90;;;;;;;2.48;100.00;93837.88;5086903;28;20193;-63
2023/03/08 05:10:58;;;;;;;1999.90;999.90;;;;;;;2.54;100.00;93832.84;5086959;28;20193;-63
2023/03/08 05:13:24;;;;;;;1999.90;999.90;;;;;;;2.53;100.00;93834.78;5086159;28;20157;-64
2023/03/08 05:15:49;;;;;;;1999.90;999.90;;;;;;;2.53;100.00;93824.03;5086434;28;20165;-63
2023/03/08 05:18:15;;;;;;;1999.90;999.90;;;;;;;2.52;100.00;93817.06;5086334;28;20199;-63
2023/03/08 05:20:40;;;;;;;1999.90;999.90;;;;;;;2.53;100.00;93813.25;5086852;28;20172;-63
2023/03/08 05:23:06;;;;;;;1999.90;999.90;;;;;;;2.55;100.00;93802.84;5086607;28;20168;-64
2023/03/08 05:25:32;;;;;;;1999.90;999.90;;;;;;;2.55;100.00;93802.84;5086572;28;20165;-64
2023/03/08 05:27:58;;;;;;;1999.90;999.90;;;;;;;2.53;100.00;93802.47;5086275;28;20212;-63
2023/03/08 05:30:23;;;;;;;1999.90;999.90;;;;;;;2.54;100.00;93798.59;5086193;28;20172;-65
2023/03/08 05:32:49;;;;;;;1999.90;999.90;;;;;;;2.52;100.00;93795.53;5086182;28;20172;-62
2023/03/08 05:35:14;;;;;;;1999.90;999.90;;;;;;;2.54;100.00;93793.22;5086340;28;20169;-64
2023/03/08 05:37:40;;;;;;;1999.90;999.90;;;;;;;2.56;100.00;93804.38;5085961;28;20173;-64
2023/03/08 05:40:05;;;;;;;1999.90;999.90;;;;;;;2.63;100.00;93798.94;5086273;28;20244;-63
2023/03/08 05:42:32;;;;;;;1999.90;999.90;;;;;;;2.66;100.00;93790.09;5085938;28;20165;-64
2023/03/08 05:44:57;;;;;;;1999.90;999.90;;;;;;;2.66;100.00;93784.69;5085907;28;20165;-64
2023/03/08 05:47:23;;;;;;;1999.90;999.90;;;;;;;2.67;100.00;93780.09;5086314;28;20232;-64
2023/03/08 05:49:48;;;;;;;1999.90;999.90;;;;;;;2.68;100.00;93787.00;5084656;28;20193;-64
2023/03/08 05:52:13;;;;;;;1999.90;999.90;;;;;;;2.73;100.00;93778.53;5085741;28;20172;-62
2023/03/08 05:54:39;;;;;;;1999.90;999.90;;;;;;;2.68;100.00;93782.38;5085695;28;20377;-63
2023/03/08 05:57:04;;;;;;;1999.90;999.90;;;;;;;2.67;100.00;93780.84;5086147;28;20215;-64
2023/03/08 05:59:30;;;;;;;1999.90;999.90;;;;;;;2.60;100.00;93775.50;5085650;28;20174;-63
2023/03/08 06:01:55;;;;;;;1999.90;999.90;;;;;;;2.64;100.00;93776.25;5085769;28;20177;-64
2023/03/08 06:04:21;;;;;;;1999.90;999.90;;;;;;;2.62;100.00;93778.56;5085665;28;20169;-63
2023/03/08 06:06:46;;;;;;;1999.90;999.90;;;;;;;2.63;100.00;93782.78;5085881;28;20175;-63
2023/03/08 06:09:11;;;;;;;1999.90;999.90;;;;;;;2.67;100.00;93772.78;5085194;28;20201;-62
2023/03/08 06:11:37;;;;;;;1999.90;999.90;;;;;;;2.87;100.00;93771.13;5085879;28;20165;-64
2023/03/08 06:14:02;;;;;;;1999.90;999.90;;;;;;;3.16;100.00;93775.16;5085617;28;20161;-66
2023/03/08 06:16:27;;;;;;;1999.90;999.90;;;;;;;3.09;100.00;93775.22;5085111;28;20240;-63
2023/03/08 06:18:53;;;;;;;1999.90;999.90;;;;;;;3.13;100.00;93770.56;5085121;28;20161;-62
2023/03/08 06:21:20;;;;;;;1999.90;999.90;;;;;;;3.14;100.00;93777.47;5085181;28;20177;-62
2023/03/08 06:23:46;;;;;;;1999.90;999.90;;;;;;;3.09;100.00;93783.31;5085047;28;20184;-63
2023/03/08 06:26:12;;;;;;;1999.90;999.90;;;;;;;3.12;100.00;93777.13;5084885;28;20236;-63
2023/03/08 06:28:39;;;;;;;1999.90;999.90;;;;;;;3.09;100.00;93780.59;5084761;28;20209;-63
2023/03/08 06:31:05;;;;;;;1999.90;999.90;;;;;;;3.17;100.00;93774.00;5084824;28;20218;-64
2023/03/08 06:33:32;;;;;;;1999.90;999.90;;;;;;;3.29;100.00;93778.91;5084882;28;20169;-64
2023/03/08 06:36:01;;;;;;;1999.90;999.90;;;;;;;3.43;100.00;93778.06;5084732;28;20240;-62
2023/03/08 06:38:28;;;;;;;1999.90;999.90;;;;;;;3.61;100.00;93786.00;5084731;28;20244;-63
2023/03/08 06:40:53;;;;;;;1999.90;999.90;;;;;;;3.78;100.00;93783.16;5085330;28;20256;-62
2023/03/08 06:43:19;;;;;;;1999.90;999.90;;;;;;;3.82;100.00;93777.72;5084754;28;20180;-62
2023/03/08 06:45:45;;;;;;;1999.90;999.90;;;;;;;3.88;100.00;93786.91;5084900;28;20175;-63
2023/03/08 06:48:10;;;;;;;1999.90;999.90;;;;;;;3.95;100.00;93793.03;5084556;28;20237;-62
2023/03/08 06:50:35;;;;;;;1999.90;999.90;;;;;;;3.91;100.00;93786.13;5084704;28;20241;-62
2023/03/08 06:53:01;;;;;;;1999.90;999.90;;;;;;;4.06;100.00;93798.31;5084573;28;20177;-61
2023/03/08 06:55:26;;;;;;;1999.90;999.90;;;;;;;4.10;100.00;93794.41;5084405;28;20200;-63
2023/03/08 06:57:54;;;;;;;1999.90;999.90;;;;;;;4.07;100.00;93794.47;5085046;28;20173;-63
2023/03/08 07:00:21;;;;;;;1999.90;999.90;;;;;;;4.10;100.00;93799.81;5084897;28;20354;-63
2023/03/08 07:02:47;;;;;;;1999.90;999.90;;;;;;;4.11;100.00;93800.59;5084355;28;20174;-63
2023/03/08 07:05:14;;;;;;;1999.90;999.90;;;;;;;4.06;100.00;93792.91;5084254;28;20169;-62
2023/03/08 07:07:40;;;;;;;1999.90;999.90;;;;;;;4.18;100.00;93789.72;5084826;28;20197;-61
2023/03/08 07:10:07;;;;;;;1999.90;999.90;;;;;;;4.21;100.00;93800.47;5084160;28;20221;-62
2023/03/08 07:12:35;;;;;;;1999.90;999.90;;;;;;;4.24;100.00;93804.31;5084687;28;20176;-62
2023/03/08 07:15:00;;;;;;;1999.90;999.90;;;;;;;4.26;100.00;93796.59;5084335;28;20189;-62
2023/03/08 07:17:26;;;;;;;1999.90;999.90;;;;;;;4.34;100.00;93798.03;5084082;28;20187;-64
2023/03/08 07:19:51;;;;;;;1999.90;999.90;;;;;;;4.35;100.00;93794.94;5084552;28;20170;-63
2023/03/08 07:22:16;;;;;;;1999.90;999.90;;;;;;;4.35;100.00;93800.34;5084059;28;20233;-64
2023/03/08 07:24:42;;;;;;;1999.90;999.90;;;;;;;4.40;100.00;93809.94;5083993;28;20173;-65
2023/03/08 07:27:07;;;;;;;1999.90;999.90;;;;;;;4.47;100.00;93817.94;5083587;28;20243;-65
2023/03/08 07:29:32;;;;;;;1999.90;999.90;;;;;;;4.52;100.00;93818.28;5084580;28;20255;-64
2023/03/08 07:31:59;;;;;;;1999.90;999.90;;;;;;;4.60;100.00;93821.66;5084145;28;20200;-64
2023/03/08 07:34:24;;;;;;;1999.90;999.90;;;;;;;4.65;100.00;93813.09;5084012;28;20393;-63
2023/03/08 07:36:50;;;;;;;1999.90;999.90;;;;;;;4.64;100.00;93808.88;5083877;28;20368;-63
2023/03/08 07:39:16;;;;;;;1999.90;999.90;;;;;;;4.69;100.00;93803.00;5084455;28;20183;-64
2023/03/08 07:41:41;;;;;;;1999.90;999.90;;;;;;;4.75;100.00;93796.78;5083802;28;20179;-65
2023/03/08 07:44:06;;;;;;;1999.90;999.90;;;;;;;4.87;100.00;93800.88;5083751;28;20174;-64
2023/03/08 07:46:32;;;;;;;1999.90;999.90;;;;;;;4.96;100.00;93795.75;5084195;28;20175;-64
2023/03/08 07:48:57;;;;;;;1999.90;999.90;;;;;;;5.02;100.00;93789.47;5083602;28;20282;-63
2023/03/08 07:51:22;;;;;;;1999.90;999.90;;;;;;;5.00;100.00;93782.94;5084021;28;20220;-64
2023/03/08 07:53:48;;;;;;;1999.90;999.90;;;;;;;5.19;100.00;93798.50;5084140;28;20204;-65
2023/03/08 07:56:13;;;;;;;1999.90;999.90;;;;;;;5.33;100.00;93790.19;5083703;28;20179;-65
2023/03/08 07:58:38;;;;;;;1999.90;999.90;;;;;;;5.37;100.00;93799.03;5083638;28;20176;-65
2023/03/08 08:01:12;;;;;;;1999.90;999.90;;;;;;;5.49;100.00;93776.78;5083259;28;20175;-64
2023/03/08 08:03:38;;;;;;;1999.90;999.90;;;;;;;5.45;100.00;93767.97;5083371;28;20177;-66
2023/03/08 08:06:04;;;;;;;1999.90;999.90;;;;;;;5.64;100.00;93764.56;5083912;28;20177;-66
2023/03/08 08:08:30;;;;;;;1999.90;999.90;;;;;;;5.79;100.00;93752.34;5083508;28;20245;-67
2023/03/08 08:10:56;;;;;;;1999.90;999.90;;;;;;;5.98;100.00;93746.97;5083472;28;20247;-65
2023/03/08 08:13:21;;;;;;;1999.90;999.90;;;;;;;6.21;100.00;93751.59;5084624;28;20182;-65
2023/03/08 08:15:46;;;;;;;1999.90;999.90;;;;;;;6.16;100.00;93742.00;5087960;28;20183;-68
2023/03/08 08:18:12;;;;;;;1999.90;999.90;;;;;;;6.47;100.00;93746.06;5087403;28;20368;-66
2023/03/08 08:20:37;;;;;;;1999.90;999.90;;;;;;;7.10;100.00;93741.25;5087422;28;20188;-66
2023/03/08 08:23:05;;;;;;;1999.90;999.90;;;;;;;7.75;100.00;93734.69;5087963;28;20209;-65
2023/03/08 08:25:31;;;;;;;1999.90;999.90;;;;;;;7.75;100.00;93725.78;5087043;28;20198;-65
2023/03/08 08:27:56;;;;;;;1999.90;999.90;;;;;;;7.85;100.00;93714.66;5087432;28;20243;-65
2023/03/08 08:30:22;;;;;;;1999.90;999.90;;;;;;;7.84;100.00;93704.97;5087997;28;20217;-65
2023/03/08 08:32:47;;;;;;;1999.90;999.90;;;;;;;7.76;100.00;93697.44;5086975;28;20180;-65
2023/03/08 08:35:13;;;;;;;1999.90;999.90;;;;;;;7.57;100.00;93699.03;5087642;28;20176;-65
2023/03/08 08:37:38;;;;;;;1999.90;999.90;;;;;;;7.48;100.00;93681.81;5087277;28;20172;-65
2023/03/08 08:40:06;;;;;;;1999.90;999.90;;;;;;;7.21;100.00;93667.75;5087888;28;20248;-65
2023/03/08 08:42:32;;;;;;;1999.90;999.90;;;;;;;7.21;100.00;93663.06;5087139;28;20172;-65
2023/03/08 08:44:57;;;;;;;1999.90;999.90;;;;;;;6.85;100.00;93652.28;5087120;28;20193;-65
2023/03/08 08:47:22;;;;;;;1999.90;999.90;;;;;;;6.79;100.00;93645.06;5087056;28;20169;-65
2023/03/08 08:49:48;;;;;;;1999.90;999.90;;;;;;;6.68;100.00;93637.19;5086791;28;20200;-66
2023/03/08 08:52:13;;;;;;;1999.90;999.90;;;;;;;6.69;100.00;93637.91;5087446;28;20207;-65
2023/03/08 08:54:38;;;;;;;1999.90;999.90;;;;;;;6.80;100.00;93624.88;5087061;28;20192;-65
2023/03/08 08:57:05;;;;;;;1999.90;999.90;;;;;;;6.70;100.00;93625.88;5086845;28;20169;-66
2023/03/08 08:59:31;;;;;;;1999.90;999.90;;;;;;;6.88;100.00;93611.94;5087290;28;20250;-66
2023/03/08 09:01:57;;;;;;;1999.90;999.90;;;;;;;6.90;100.00;93618.47;5087301;28;20171;-66
2023/03/08 09:04:22;;;;;;;1999.90;999.90;;;;;;;6.99;100.00;93623.31;5087122;28;20168;-66
2023/03/08 09:06:47;;;;;;;1999.90;999.90;;;;;;;7.01;100.00;93616.25;5086744;28;20230;-67
2023/03/08 09:09:13;;;;;;;1999.90;999.90;;;;;;;7.07;100.00;93617.28;5086544;28;20200;-66
2023/03/08 09:11:38;;;;;;;1999.90;999.90;;;;;;;7.06;100.00;93607.59;5086680;28;20367;-66
2023/03/08 09:14:03;;;;;;;1999.90;999.90;;;;;;;7.15;100.00;93613.22;5086508;28;20168;-66
2023/03/08 09:16:32;;;;;;;1999.90;999.90;;;;;;;7.09;100.00;93604.03;5086542;28;20172;-67
2023/03/08 09:19:00;;;;;;;1999.90;999.90;;;;;;;7.32;100.00;93598.41;5086463;28;20161;-66
2023/03/08 09:21:27;;;;;;;1999.90;999.90;;;;;;;7.24;100.00;93597.06;5086095;28;20211;-66
2023/03/08 09:23:58;;;;;;;1999.90;999.90;;;;;;;7.28;100.00;93591.56;5086692;28;20166;-66
2023/03/08 09:26:24;;;;;;;1999.90;999.90;;;;;;;7.39;100.00;93587.38;5085506;28;20444;-66
2023/03/08 09:28:49;;;;;;;1999.90;999.90;;;;;;;7.28;100.00;93581.47;5086277;28;20215;-66
2023/03/08 09:31:17;;;;;;;1999.90;999.90;;;;;;;7.32;100.00;93565.84;5086310;28;20169;-66
2023/03/08 09:33:45;;;;;;;1999.90;999.90;;;;;;;7.22;100.00;93560.69;5086690;28;20169;-67
2023/03/08 09:36:11;;;;;;;1999.90;999.90;;;;;;;7.17;100.00;93574.78;5086849;28;20206;-66
2023/03/08 09:38:38;;;;;;;1999.90;999.90;;;;;;;7.25;100.00;93566.03;5086552;28;20178;-65
2023/03/08 09:41:24;;;;;;;1999.90;999.90;;;;;;;7.27;100.00;93558.22;5086064;28;20168;-66
2023/03/08 09:44:04;;;;;;;1999.90;999.90;;;;;;;7.33;100.00;93561.97;5086733;28;20176;-66
2023/03/08 09:46:35;;;;;;;1999.90;999.90;;;;;;;7.54;100.00;93538.91;5086410;28;20161;-66
2023/03/08 09:49:03;;;;;;;1999.90;999.90;;;;;;;7.61;100.00;93549.59;5086148;28;20227;-65
2023/03/08 09:51:35;;;;;;;1999.90;999.90;;;;;;;7.77;100.00;93539.44;5085743;28;20189;-66
2023/03/08 09:54:05;;;;;;;1999.90;999.90;;;;;;;7.96;100.00;93538.50;5085969;28;20185;-64
2023/03/08 09:56:37;;;;;;;1999.90;999.90;;;;;;;7.99;100.00;93547.72;5086085;28;20235;-65
2023/03/08 09:59:12;;;;;;;1999.90;999.90;;;;;;;7.99;100.00;93532.19;5086251;28;20195;-64
2023/03/08 10:02:10;;;;;;;1999.90;999.90;;;;;;;8.14;100.00;93548.84;5085856;28;20175;-64
2023/03/08 10:04:39;;;;;;;1999.90;999.90;;;;;;;8.29;100.00;93536.38;5057401;28;20177;-65
2023/03/08 10:07:20;;;;;;;1999.90;999.90;;;;;;;8.31;100.00;93507.56;5085718;28;20493;-64
2023/03/08 10:10:05;;;;;;;1999.90;999.90;;;;;;;8.84;100.00;93519.50;5086021;28;20189;-65
2023/03/08 10:12:55;;;;;;;1999.90;999.90;;;;;;;9.38;100.00;93520.03;5085497;28;20162;-65
2023/03/08 10:15:23;;;;;;;1999.90;999.90;;;;;;;9.33;100.00;93531.50;5085822;28;20166;-65
2023/03/08 10:17:59;;;;;;;1999.90;999.90;;;;;;;9.18;100.00;93527.75;5085555;28;20169;-63
2023/03/08 10:20:33;;;;;;;1999.90;999.90;;;;;;;8.97;100.00;93525.72;5085318;28;20173;-65
2023/03/08 10:23:21;;;;;;;1999.90;999.90;;;;;;;8.62;100.00;93533.03;5085247;28;20176;-65
2023/03/08 10:25:48;;;;;;;1999.90;999.90;;;;;;;8.46;100.00;93516.06;5085763;28;20233;-65
2023/03/08 10:28:15;;;;;;;1999.90;999.90;;;;;;;8.45;100.00;93509.84;5084759;28;20220;-65
2023/03/08 10:30:47;;;;;;;1999.90;999.90;;;;;;;8.46;100.00;93514.13;5084995;28;20165;-65
2023/03/08 10:33:16;;;;;;;1999.90;999.90;;;;;;;8.43;100.00;93527.81;5085615;28;20161;-65
2023/03/08 10:36:08;;;;;;;1999.90;999.90;;;;;;;8.59;100.00;93539.34;5085198;28;20196;-65
2023/03/08 10:38:35;;;;;;;1999.90;999.90;;;;;;;8.68;100.00;93555.78;5085421;28;20240;-65
2023/03/08 10:41:14;;;;;;;1999.90;999.90;;;;;;;8.88;100.00;93563.69;5085259;28;20165;-65
2023/03/08 10:43:47;;;;;;;1999.90;999.90;;;;;;;9.01;100.00;93567.19;5085248;28;20211;-65
2023/03/08 10:46:19;;;;;;;1999.90;999.90;;;;;;;9.13;100.00;93561.72;5085176;28;20161;-66
2023/03/08 10:48:45;;;;;;;1999.90;999.90;;;;;;;8.95;100.00;93553.38;5084564;28;20264;-64
2023/03/08 10:51:27;;;;;;;1999.90;999.90;;;;;;;8.88;100.00;93556.31;5085080;28;20191;-65
2023/03/08 10:54:01;;;;;;;1999.90;999.90;;;;;;;8.83;100.00;93556.88;5084928;28;20194;-65